sensor_id;sensor_type;location;lat;lon;timestamp;temperature;humidity
48206;DHT22;33995;48.202;16.260;2022-11-20T00:01:32;1.70;99.90
48206;DHT22;33995;48.202;16.260;2022-11-20T00:04:02;1.80;99.90
48206;DHT22;33995;48.202;16.260;2022-11-20T00:06:31;1.80;99.90
48206;DHT22;33995;48.202;16.260;2022-11-20T00:09:00;1.70;99.90
48206;DHT22;33995;48.202;16.260;2022-11-20T00:11:31;1.90;99.90
48206;DHT22;33995;48.202;16.260;2022-11-20T00:14:01;1.90;99.90
48206;DHT22;33995;48.202;16.260;2022-11-20T00:16:32;1.90;99.90
48206;DHT22;33995;48.202;16.260;2022-11-20T00:19:07;1.80;99.90
48206;DHT22;33995;48.202;16.260;2022-11-20T00:21:35;1.80;99.90
48206;DHT22;33995;48.202;16.260;2022-11-20T00:24:03;1.80;99.90
48206;DHT22;33995;48.202;16.260;2022-11-20T00:26:30;1.80;99.90
48206;DHT22;33995;48.202;16.260;2022-11-20T00:29:00;1.80;99.90
48206;DHT22;33995;48.202;16.260;2022-11-20T00:31:30;1.70;99.90
48206;DHT22;33995;48.202;16.260;2022-11-20T00:33:58;1.70;99.90
48206;DHT22;33995;48.202;16.260;2022-11-20T00:36:27;1.70;99.90
48206;DHT22;33995;48.202;16.260;2022-11-20T00:38:56;1.70;99.90
48206;DHT22;33995;48.202;16.260;2022-11-20T00:41:25;1.80;99.90
48206;DHT22;33995;48.202;16.260;2022-11-20T00:43:56;1.80;99.90
48206;DHT22;33995;48.202;16.260;2022-11-20T00:46:27;1.70;99.90
48206;DHT22;33995;48.202;16.260;2022-11-20T00:48:59;1.90;99.90
48206;DHT22;33995;48.202;16.260;2022-11-20T00:51:35;1.70;99.90
48206;DHT22;33995;48.202;16.260;2022-11-20T00:54:06;1.70;99.90
48206;DHT22;33995;48.202;16.260;2022-11-20T00:56:33;1.70;99.90
48206;DHT22;33995;48.202;16.260;2022-11-20T00:59:03;1.70;99.90
48206;DHT22;33995;48.202;16.260;2022-11-20T01:01:32;1.70;99.90
48206;DHT22;33995;48.202;16.260;2022-11-20T01:04:01;1.70;99.90
48206;DHT22;33995;48.202;16.260;2022-11-20T01:06:34;1.70;99.90
48206;DHT22;33995;48.202;16.260;2022-11-20T01:09:09;1.80;99.90
48206;DHT22;33995;48.202;16.260;2022-11-20T01:11:39;1.60;99.90
48206;DHT22;33995;48.202;16.260;2022-11-20T01:14:10;1.80;99.90
48206;DHT22;33995;48.202;16.260;2022-11-20T01:16:43;1.70;99.90
48206;DHT22;33995;48.202;16.260;2022-11-20T01:19:13;1.70;99.90
48206;DHT22;33995;48.202;16.260;2022-11-20T01:21:46;1.70;99.90
48206;DHT22;33995;48.202;16.260;2022-11-20T01:24:16;1.70;99.90
48206;DHT22;33995;48.202;16.260;2022-11-20T01:26:47;1.60;99.90
48206;DHT22;33995;48.202;16.260;2022-11-20T01:29:20;1.70;99.90
48206;DHT22;33995;48.202;16.260;2022-11-20T01:31:48;1.70;99.90
48206;DHT22;33995;48.202;16.260;2022-11-20T01:34:18;1.70;99.90
48206;DHT22;33995;48.202;16.260;2022-11-20T01:36:47;1.50;99.90
48206;DHT22;33995;48.202;16.260;2022-11-20T01:39:24;1.50;99.90
48206;DHT22;33995;48.202;16.260;2022-11-20T01:41:53;1.60;99.90
48206;DHT22;33995;48.202;16.260;2022-11-20T01:44:55;1.60;99.90
48206;DHT22;33995;48.202;16.260;2022-11-20T01:47:37;1.60;99.90
48206;DHT22;33995;48.202;16.260;2022-11-20T01:50:17;1.60;99.90
48206;DHT22;33995;48.202;16.260;2022-11-20T01:52:49;1.60;99.90
48206;DHT22;33995;48.202;16.260;2022-11-20T01:55:26;1.60;99.90
48206;DHT22;33995;48.202;16.260;2022-11-20T01:57:54;1.60;99.90
48206;DHT22;33995;48.202;16.260;2022-11-20T02:00:22;1.60;99.90
48206;DHT22;33995;48.202;16.260;2022-11-20T02:02:58;1.60;99.90
48206;DHT22;33995;48.202;16.260;2022-11-20T02:05:38;1.60;99.90
48206;DHT22;33995;48.202;16.260;2022-11-20T02:08:07;1.60;99.90
48206;DHT22;33995;48.202;16.260;2022-11-20T02:10:35;1.50;99.90
48206;DHT22;33995;48.202;16.260;2022-11-20T02:13:04;1.60;99.90
48206;DHT22;33995;48.202;16.260;2022-11-20T02:15:51;1.60;99.90
48206;DHT22;33995;48.202;16.260;2022-11-20T02:18:20;1.70;99.90
48206;DHT22;33995;48.202;16.260;2022-11-20T02:20:53;1.60;99.90
48206;DHT22;33995;48.202;16.260;2022-11-20T02:23:26;1.70;99.90
48206;DHT22;33995;48.202;16.260;2022-11-20T02:25:55;1.60;99.90
48206;DHT22;33995;48.202;16.260;2022-11-20T02:28:26;1.60;99.90
48206;DHT22;33995;48.202;16.260;2022-11-20T02:30:54;1.70;99.90
48206;DHT22;33995;48.202;16.260;2022-11-20T02:33:21;1.80;99.90
48206;DHT22;33995;48.202;16.260;2022-11-20T02:35:48;1.80;99.90
48206;DHT22;33995;48.202;16.260;2022-11-20T02:38:16;1.80;99.90
48206;DHT22;33995;48.202;16.260;2022-11-20T02:40:43;1.70;99.90
48206;DHT22;33995;48.202;16.260;2022-11-20T02:43:11;1.60;99.90
48206;DHT22;33995;48.202;16.260;2022-11-20T02:45:40;1.70;99.90
48206;DHT22;33995;48.202;16.260;2022-11-20T02:48:08;1.60;99.90
48206;DHT22;33995;48.202;16.260;2022-11-20T02:50:39;1.50;99.90
48206;DHT22;33995;48.202;16.260;2022-11-20T02:53:08;1.60;99.90
48206;DHT22;33995;48.202;16.260;2022-11-20T02:55:36;1.50;99.90
48206;DHT22;33995;48.202;16.260;2022-11-20T02:58:05;1.60;99.90
48206;DHT22;33995;48.202;16.260;2022-11-20T03:00:32;1.50;99.90
48206;DHT22;33995;48.202;16.260;2022-11-20T03:03:00;1.40;99.90
48206;DHT22;33995;48.202;16.260;2022-11-20T03:05:27;1.40;99.90
48206;DHT22;33995;48.202;16.260;2022-11-20T03:07:55;1.50;99.90
48206;DHT22;33995;48.202;16.260;2022-11-20T03:10:22;1.70;99.90
48206;DHT22;33995;48.202;16.260;2022-11-20T03:12:56;1.60;99.90
48206;DHT22;33995;48.202;16.260;2022-11-20T03:15:24;1.50;99.90
48206;DHT22;33995;48.202;16.260;2022-11-20T03:17:54;1.50;99.90
48206;DHT22;33995;48.202;16.260;2022-11-20T03:20:23;1.50;99.90
48206;DHT22;33995;48.202;16.260;2022-11-20T03:22:50;1.50;99.90
48206;DHT22;33995;48.202;16.260;2022-11-20T03:25:21;1.40;99.90
48206;DHT22;33995;48.202;16.260;2022-11-20T03:27:48;1.40;99.90
48206;DHT22;33995;48.202;16.260;2022-11-20T03:30:16;1.50;99.90
48206;DHT22;33995;48.202;16.260;2022-11-20T03:32:43;1.50;99.90
48206;DHT22;33995;48.202;16.260;2022-11-20T03:35:12;1.60;99.90
48206;DHT22;33995;48.202;16.260;2022-11-20T03:37:40;1.50;99.90
48206;DHT22;33995;48.202;16.260;2022-11-20T03:40:09;1.60;99.90
48206;DHT22;33995;48.202;16.260;2022-11-20T03:42:37;1.60;99.90
48206;DHT22;33995;48.202;16.260;2022-11-20T03:45:17;1.60;99.90
48206;DHT22;33995;48.202;16.260;2022-11-20T03:47:46;1.70;99.90
48206;DHT22;33995;48.202;16.260;2022-11-20T03:50:13;1.70;99.90
48206;DHT22;33995;48.202;16.260;2022-11-20T03:52:41;1.60;99.90
48206;DHT22;33995;48.202;16.260;2022-11-20T03:55:10;1.70;99.90
48206;DHT22;33995;48.202;16.260;2022-11-20T03:57:38;1.70;99.90
48206;DHT22;33995;48.202;16.260;2022-11-20T04:00:06;1.70;99.90
48206;DHT22;33995;48.202;16.260;2022-11-20T04:02:34;1.70;99.90
48206;DHT22;33995;48.202;16.260;2022-11-20T04:05:01;1.80;99.90
48206;DHT22;33995;48.202;16.260;2022-11-20T04:07:28;1.80;99.90
48206;DHT22;33995;48.202;16.260;2022-11-20T04:09:56;1.70;99.90
48206;DHT22;33995;48.202;16.260;2022-11-20T04:12:23;1.80;99.90
48206;DHT22;33995;48.202;16.260;2022-11-20T04:14:51;1.80;99.90
48206;DHT22;33995;48.202;16.260;2022-11-20T04:17:18;1.80;99.90
48206;DHT22;33995;48.202;16.260;2022-11-20T04:19:45;1.70;99.90
48206;DHT22;33995;48.202;16.260;2022-11-20T04:22:13;1.80;99.90
48206;DHT22;33995;48.202;16.260;2022-11-20T04:24:41;1.60;99.90
48206;DHT22;33995;48.202;16.260;2022-11-20T04:27:09;1.60;99.90
48206;DHT22;33995;48.202;16.260;2022-11-20T04:29:36;1.70;99.90
48206;DHT22;33995;48.202;16.260;2022-11-20T04:32:03;1.70;99.90
48206;DHT22;33995;48.202;16.260;2022-11-20T04:34:31;1.80;99.90
48206;DHT22;33995;48.202;16.260;2022-11-20T04:36:58;1.70;99.90
48206;DHT22;33995;48.202;16.260;2022-11-20T04:39:25;1.70;99.90
48206;DHT22;33995;48.202;16.260;2022-11-20T04:41:53;1.70;99.90
48206;DHT22;33995;48.202;16.260;2022-11-20T04:44:41;1.70;99.90
48206;DHT22;33995;48.202;16.260;2022-11-20T04:47:09;1.70;99.90
48206;DHT22;33995;48.202;16.260;2022-11-20T04:49:37;1.70;99.90
48206;DHT22;33995;48.202;16.260;2022-11-20T04:52:05;1.70;99.90
48206;DHT22;33995;48.202;16.260;2022-11-20T04:54:33;1.70;99.90
48206;DHT22;33995;48.202;16.260;2022-11-20T04:57:00;1.70;99.90
48206;DHT22;33995;48.202;16.260;2022-11-20T04:59:29;1.90;99.90
48206;DHT22;33995;48.202;16.260;2022-11-20T05:01:56;1.70;99.90
48206;DHT22;33995;48.202;16.260;2022-11-20T05:04:24;1.70;99.90
48206;DHT22;33995;48.202;16.260;2022-11-20T05:06:51;1.70;99.90
48206;DHT22;33995;48.202;16.260;2022-11-20T05:09:18;1.80;99.90
48206;DHT22;33995;48.202;16.260;2022-11-20T05:11:46;1.80;99.90
48206;DHT22;33995;48.202;16.260;2022-11-20T05:14:17;1.80;99.90
48206;DHT22;33995;48.202;16.260;2022-11-20T05:16:46;1.80;99.90
48206;DHT22;33995;48.202;16.260;2022-11-20T05:19:13;1.80;99.90
48206;DHT22;33995;48.202;16.260;2022-11-20T05:21:40;1.90;99.90
48206;DHT22;33995;48.202;16.260;2022-11-20T05:24:08;1.90;99.90
48206;DHT22;33995;48.202;16.260;2022-11-20T05:26:35;1.90;99.90
48206;DHT22;33995;48.202;16.260;2022-11-20T05:29:03;1.80;99.90
48206;DHT22;33995;48.202;16.260;2022-11-20T05:31:30;1.80;99.90
48206;DHT22;33995;48.202;16.260;2022-11-20T05:33:59;1.90;99.90
48206;DHT22;33995;48.202;16.260;2022-11-20T05:36:27;1.80;99.90
48206;DHT22;33995;48.202;16.260;2022-11-20T05:38:56;1.90;99.90
48206;DHT22;33995;48.202;16.260;2022-11-20T05:41:29;1.80;99.90
48206;DHT22;33995;48.202;16.260;2022-11-20T05:43:58;1.80;99.90
48206;DHT22;33995;48.202;16.260;2022-11-20T05:46:26;1.80;99.90
48206;DHT22;33995;48.202;16.260;2022-11-20T05:48:57;1.90;99.90
48206;DHT22;33995;48.202;16.260;2022-11-20T05:51:26;1.90;99.90
48206;DHT22;33995;48.202;16.260;2022-11-20T05:53:58;1.90;99.90
48206;DHT22;33995;48.202;16.260;2022-11-20T05:56:27;1.90;99.90
48206;DHT22;33995;48.202;16.260;2022-11-20T05:58:54;2.10;99.90
48206;DHT22;33995;48.202;16.260;2022-11-20T06:01:24;2.00;99.90
48206;DHT22;33995;48.202;16.260;2022-11-20T06:03:53;2.00;99.90
48206;DHT22;33995;48.202;16.260;2022-11-20T06:06:21;1.90;99.90
48206;DHT22;33995;48.202;16.260;2022-11-20T06:08:49;1.80;99.90
48206;DHT22;33995;48.202;16.260;2022-11-20T06:11:17;1.80;99.90
48206;DHT22;33995;48.202;16.260;2022-11-20T06:13:46;1.90;99.90
48206;DHT22;33995;48.202;16.260;2022-11-20T06:16:16;2.00;99.90
48206;DHT22;33995;48.202;16.260;2022-11-20T06:18:45;1.90;99.90
48206;DHT22;33995;48.202;16.260;2022-11-20T06:21:17;1.90;99.90
48206;DHT22;33995;48.202;16.260;2022-11-20T06:23:46;1.90;99.90
48206;DHT22;33995;48.202;16.260;2022-11-20T06:26:16;1.90;99.90
48206;DHT22;33995;48.202;16.260;2022-11-20T06:28:47;1.90;99.90
48206;DHT22;33995;48.202;16.260;2022-11-20T06:31:16;1.90;99.90
48206;DHT22;33995;48.202;16.260;2022-11-20T06:33:44;2.00;99.90
48206;DHT22;33995;48.202;16.260;2022-11-20T06:36:13;1.90;99.90
48206;DHT22;33995;48.202;16.260;2022-11-20T06:38:42;1.90;99.90
48206;DHT22;33995;48.202;16.260;2022-11-20T06:41:20;1.90;99.90
48206;DHT22;33995;48.202;16.260;2022-11-20T06:43:48;1.90;99.90
48206;DHT22;33995;48.202;16.260;2022-11-20T06:46:17;1.80;99.90
48206;DHT22;33995;48.202;16.260;2022-11-20T06:48:49;1.80;99.90
48206;DHT22;33995;48.202;16.260;2022-11-20T06:51:17;1.80;99.90
48206;DHT22;33995;48.202;16.260;2022-11-20T06:53:45;1.90;99.90
48206;DHT22;33995;48.202;16.260;2022-11-20T06:56:12;1.90;99.90
48206;DHT22;33995;48.202;16.260;2022-11-20T06:58:40;1.90;99.90
48206;DHT22;33995;48.202;16.260;2022-11-20T07:01:10;1.80;99.90
48206;DHT22;33995;48.202;16.260;2022-11-20T07:03:39;1.90;99.90
48206;DHT22;33995;48.202;16.260;2022-11-20T07:06:07;1.80;99.90
48206;DHT22;33995;48.202;16.260;2022-11-20T07:08:35;1.80;99.90
48206;DHT22;33995;48.202;16.260;2022-11-20T07:11:06;1.90;99.90
48206;DHT22;33995;48.202;16.260;2022-11-20T07:13:33;1.80;99.90
48206;DHT22;33995;48.202;16.260;2022-11-20T07:16:06;1.80;99.90
48206;DHT22;33995;48.202;16.260;2022-11-20T07:18:35;1.80;99.90
48206;DHT22;33995;48.202;16.260;2022-11-20T07:21:07;1.90;99.90
48206;DHT22;33995;48.202;16.260;2022-11-20T07:23:35;1.90;99.90
48206;DHT22;33995;48.202;16.260;2022-11-20T07:26:10;2.00;99.90
48206;DHT22;33995;48.202;16.260;2022-11-20T07:28:38;2.00;99.90
48206;DHT22;33995;48.202;16.260;2022-11-20T07:31:07;2.00;99.90
48206;DHT22;33995;48.202;16.260;2022-11-20T07:33:35;1.90;99.90
48206;DHT22;33995;48.202;16.260;2022-11-20T07:36:05;2.00;99.90
48206;DHT22;33995;48.202;16.260;2022-11-20T07:38:34;2.00;99.90
48206;DHT22;33995;48.202;16.260;2022-11-20T07:41:04;2.00;99.90
48206;DHT22;33995;48.202;16.260;2022-11-20T07:43:33;2.00;99.90
48206;DHT22;33995;48.202;16.260;2022-11-20T07:46:08;2.00;99.90
48206;DHT22;33995;48.202;16.260;2022-11-20T07:48:35;1.90;99.90
48206;DHT22;33995;48.202;16.260;2022-11-20T07:51:04;1.90;99.90
48206;DHT22;33995;48.202;16.260;2022-11-20T07:53:33;1.80;99.90
48206;DHT22;33995;48.202;16.260;2022-11-20T07:56:02;1.80;99.90
48206;DHT22;33995;48.202;16.260;2022-11-20T07:58:30;1.90;99.90
48206;DHT22;33995;48.202;16.260;2022-11-20T08:01:05;2.00;99.90
48206;DHT22;33995;48.202;16.260;2022-11-20T08:03:35;1.90;99.90
48206;DHT22;33995;48.202;16.260;2022-11-20T08:06:05;2.00;99.90
48206;DHT22;33995;48.202;16.260;2022-11-20T08:08:33;1.90;99.90
48206;DHT22;33995;48.202;16.260;2022-11-20T08:11:10;1.80;99.90
48206;DHT22;33995;48.202;16.260;2022-11-20T08:13:56;1.70;99.90
48206;DHT22;33995;48.202;16.260;2022-11-20T08:16:48;1.80;99.90
48206;DHT22;33995;48.202;16.260;2022-11-20T08:19:17;1.90;99.90
48206;DHT22;33995;48.202;16.260;2022-11-20T08:21:45;1.90;99.90
48206;DHT22;33995;48.202;16.260;2022-11-20T08:24:12;2.00;99.90
48206;DHT22;33995;48.202;16.260;2022-11-20T08:26:40;2.00;99.90
48206;DHT22;33995;48.202;16.260;2022-11-20T08:29:08;1.90;99.90
48206;DHT22;33995;48.202;16.260;2022-11-20T08:31:35;2.10;99.90
48206;DHT22;33995;48.202;16.260;2022-11-20T08:34:04;2.10;99.90
48206;DHT22;33995;48.202;16.260;2022-11-20T08:36:36;2.30;99.90
48206;DHT22;33995;48.202;16.260;2022-11-20T08:39:03;2.30;99.90
48206;DHT22;33995;48.202;16.260;2022-11-20T08:41:37;2.20;99.90
48206;DHT22;33995;48.202;16.260;2022-11-20T08:44:06;2.30;99.90
48206;DHT22;33995;48.202;16.260;2022-11-20T08:46:37;2.40;99.90
48206;DHT22;33995;48.202;16.260;2022-11-20T08:49:08;2.40;99.90
48206;DHT22;33995;48.202;16.260;2022-11-20T08:51:37;2.30;99.90
48206;DHT22;33995;48.202;16.260;2022-11-20T08:54:10;2.30;99.90
48206;DHT22;33995;48.202;16.260;2022-11-20T08:56:37;2.40;99.90
48206;DHT22;33995;48.202;16.260;2022-11-20T08:59:09;2.40;99.90
48206;DHT22;33995;48.202;16.260;2022-11-20T09:01:59;2.50;99.90
48206;DHT22;33995;48.202;16.260;2022-11-20T09:04:26;2.50;99.90
48206;DHT22;33995;48.202;16.260;2022-11-20T09:06:53;2.40;99.90
48206;DHT22;33995;48.202;16.260;2022-11-20T09:09:21;2.50;99.90
48206;DHT22;33995;48.202;16.260;2022-11-20T09:11:49;2.50;99.90
48206;DHT22;33995;48.202;16.260;2022-11-20T09:14:17;2.50;99.90
48206;DHT22;33995;48.202;16.260;2022-11-20T09:16:45;2.60;99.90
48206;DHT22;33995;48.202;16.260;2022-11-20T09:19:14;2.60;99.90
48206;DHT22;33995;48.202;16.260;2022-11-20T09:22:02;2.50;99.90
48206;DHT22;33995;48.202;16.260;2022-11-20T09:24:30;2.60;99.90
48206;DHT22;33995;48.202;16.260;2022-11-20T09:26:57;2.50;99.90
48206;DHT22;33995;48.202;16.260;2022-11-20T09:29:24;2.50;99.90
48206;DHT22;33995;48.202;16.260;2022-11-20T09:31:52;2.50;99.90
48206;DHT22;33995;48.202;16.260;2022-11-20T09:34:19;2.40;99.90
48206;DHT22;33995;48.202;16.260;2022-11-20T09:36:47;2.50;99.90
48206;DHT22;33995;48.202;16.260;2022-11-20T09:39:14;2.40;99.90
48206;DHT22;33995;48.202;16.260;2022-11-20T09:41:56;2.50;99.90
48206;DHT22;33995;48.202;16.260;2022-11-20T09:46:54;2.50;99.90
48206;DHT22;33995;48.202;16.260;2022-11-20T09:50:02;2.60;99.90
48206;DHT22;33995;48.202;16.260;2022-11-20T09:55:14;2.60;99.90
48206;DHT22;33995;48.202;16.260;2022-11-20T09:57:47;2.70;99.90
48206;DHT22;33995;48.202;16.260;2022-11-20T10:00:16;2.80;99.90
48206;DHT22;33995;48.202;16.260;2022-11-20T10:06:02;2.70;99.90
48206;DHT22;33995;48.202;16.260;2022-11-20T10:14:34;2.70;99.90
48206;DHT22;33995;48.202;16.260;2022-11-20T10:17:03;2.70;99.90
48206;DHT22;33995;48.202;16.260;2022-11-20T10:20:06;2.80;99.90
48206;DHT22;33995;48.202;16.260;2022-11-20T10:28:56;2.70;99.90
48206;DHT22;33995;48.202;16.260;2022-11-20T10:31:37;2.90;99.90
48206;DHT22;33995;48.202;16.260;2022-11-20T10:34:15;3.00;99.90
48206;DHT22;33995;48.202;16.260;2022-11-20T10:36:59;3.10;99.90
48206;DHT22;33995;48.202;16.260;2022-11-20T10:43:21;3.20;99.90
48206;DHT22;33995;48.202;16.260;2022-11-20T10:48:32;3.20;99.90
48206;DHT22;33995;48.202;16.260;2022-11-20T10:56:48;3.60;99.90
48206;DHT22;33995;48.202;16.260;2022-11-20T10:59:54;3.60;99.90
48206;DHT22;33995;48.202;16.260;2022-11-20T11:02:31;3.60;99.90
48206;DHT22;33995;48.202;16.260;2022-11-20T11:05:09;3.40;99.90
48206;DHT22;33995;48.202;16.260;2022-11-20T11:07:41;3.50;99.90
48206;DHT22;33995;48.202;16.260;2022-11-20T11:10:22;3.40;99.90
48206;DHT22;33995;48.202;16.260;2022-11-20T11:12:52;3.50;99.90
48206;DHT22;33995;48.202;16.260;2022-11-20T11:15:40;3.40;99.90
48206;DHT22;33995;48.202;16.260;2022-11-20T11:18:11;3.40;99.90
48206;DHT22;33995;48.202;16.260;2022-11-20T11:20:38;3.40;99.90
48206;DHT22;33995;48.202;16.260;2022-11-20T11:23:41;3.50;99.90
48206;DHT22;33995;48.202;16.260;2022-11-20T11:26:22;3.40;99.90
48206;DHT22;33995;48.202;16.260;2022-11-20T11:29:01;3.50;99.90
48206;DHT22;33995;48.202;16.260;2022-11-20T11:31:34;3.60;99.90
48206;DHT22;33995;48.202;16.260;2022-11-20T11:36:40;3.60;99.90
48206;DHT22;33995;48.202;16.260;2022-11-20T11:39:15;3.70;99.90
48206;DHT22;33995;48.202;16.260;2022-11-20T11:41:44;3.70;99.90
48206;DHT22;33995;48.202;16.260;2022-11-20T11:44:43;3.80;99.90
48206;DHT22;33995;48.202;16.260;2022-11-20T11:47:36;3.90;99.90
48206;DHT22;33995;48.202;16.260;2022-11-20T11:50:21;4.10;99.90
48206;DHT22;33995;48.202;16.260;2022-11-20T11:55:42;5.20;99.90
48206;DHT22;33995;48.202;16.260;2022-11-20T11:58:20;5.90;99.90
48206;DHT22;33995;48.202;16.260;2022-11-20T12:04:17;6.40;99.90
48206;DHT22;33995;48.202;16.260;2022-11-20T12:06:50;8.50;99.90
48206;DHT22;33995;48.202;16.260;2022-11-20T12:09:21;9.30;99.90
48206;DHT22;33995;48.202;16.260;2022-11-20T12:12:12;9.00;99.90
48206;DHT22;33995;48.202;16.260;2022-11-20T12:14:47;7.70;99.90
48206;DHT22;33995;48.202;16.260;2022-11-20T12:17:17;6.70;99.90
48206;DHT22;33995;48.202;16.260;2022-11-20T12:19:45;6.50;99.90
48206;DHT22;33995;48.202;16.260;2022-11-20T12:25:11;5.90;99.90
48206;DHT22;33995;48.202;16.260;2022-11-20T12:34:22;5.60;99.90
48206;DHT22;33995;48.202;16.260;2022-11-20T12:39:39;5.40;99.90
48206;DHT22;33995;48.202;16.260;2022-11-20T12:45:51;5.60;99.90
48206;DHT22;33995;48.202;16.260;2022-11-20T12:48:45;5.70;99.90
48206;DHT22;33995;48.202;16.260;2022-11-20T12:57:39;5.60;99.90
48206;DHT22;33995;48.202;16.260;2022-11-20T13:00:14;5.80;99.90
48206;DHT22;33995;48.202;16.260;2022-11-20T13:03:22;5.90;99.90
48206;DHT22;33995;48.202;16.260;2022-11-20T13:06:13;6.60;99.90
48206;DHT22;33995;48.202;16.260;2022-11-20T13:08:50;7.50;99.90
48206;DHT22;33995;48.202;16.260;2022-11-20T13:11:44;8.20;99.90
48206;DHT22;33995;48.202;16.260;2022-11-20T13:14:36;8.00;99.90
48206;DHT22;33995;48.202;16.260;2022-11-20T13:19:35;8.90;99.90
48206;DHT22;33995;48.202;16.260;2022-11-20T13:22:04;8.90;99.90
48206;DHT22;33995;48.202;16.260;2022-11-20T13:24:33;9.10;99.90
48206;DHT22;33995;48.202;16.260;2022-11-20T13:29:43;7.80;99.90
48206;DHT22;33995;48.202;16.260;2022-11-20T13:32:17;7.60;99.90
48206;DHT22;33995;48.202;16.260;2022-11-20T13:34:53;7.40;99.90
48206;DHT22;33995;48.202;16.260;2022-11-20T13:40:04;7.00;99.90
48206;DHT22;33995;48.202;16.260;2022-11-20T13:42:38;7.00;99.90
48206;DHT22;33995;48.202;16.260;2022-11-20T13:45:29;7.10;99.90
48206;DHT22;33995;48.202;16.260;2022-11-20T13:48:16;7.60;99.90
48206;DHT22;33995;48.202;16.260;2022-11-20T14:02:16;8.30;99.90
48206;DHT22;33995;48.202;16.260;2022-11-20T14:04:48;7.70;99.90
48206;DHT22;33995;48.202;16.260;2022-11-20T14:07:18;7.50;99.90
48206;DHT22;33995;48.202;16.260;2022-11-20T14:09:55;7.30;99.90
48206;DHT22;33995;48.202;16.260;2022-11-20T14:12:30;7.30;99.90
48206;DHT22;33995;48.202;16.260;2022-11-20T14:15:01;7.00;99.90
48206;DHT22;33995;48.202;16.260;2022-11-20T14:17:32;7.00;99.90
48206;DHT22;33995;48.202;16.260;2022-11-20T14:20:12;7.00;99.90
48206;DHT22;33995;48.202;16.260;2022-11-20T14:22:49;6.80;99.90
48206;DHT22;33995;48.202;16.260;2022-11-20T14:25:27;6.90;99.90
48206;DHT22;33995;48.202;16.260;2022-11-20T14:28:01;6.80;99.90
48206;DHT22;33995;48.202;16.260;2022-11-20T14:30:38;6.70;99.90
48206;DHT22;33995;48.202;16.260;2022-11-20T14:33:09;6.70;99.90
48206;DHT22;33995;48.202;16.260;2022-11-20T14:35:48;6.60;99.90
48206;DHT22;33995;48.202;16.260;2022-11-20T14:38:21;6.60;99.90
48206;DHT22;33995;48.202;16.260;2022-11-20T14:40:50;6.50;99.90
48206;DHT22;33995;48.202;16.260;2022-11-20T14:43:20;6.40;99.90
48206;DHT22;33995;48.202;16.260;2022-11-20T14:46:08;6.30;99.90
48206;DHT22;33995;48.202;16.260;2022-11-20T14:51:10;6.20;99.90
48206;DHT22;33995;48.202;16.260;2022-11-20T14:53:38;6.10;99.90
48206;DHT22;33995;48.202;16.260;2022-11-20T14:56:09;6.10;99.90
48206;DHT22;33995;48.202;16.260;2022-11-20T14:58:38;5.90;99.90
48206;DHT22;33995;48.202;16.260;2022-11-20T15:01:07;5.80;99.90
48206;DHT22;33995;48.202;16.260;2022-11-20T15:03:39;5.60;99.90
48206;DHT22;33995;48.202;16.260;2022-11-20T15:06:11;5.60;99.90
48206;DHT22;33995;48.202;16.260;2022-11-20T15:08:50;5.50;99.90
48206;DHT22;33995;48.202;16.260;2022-11-20T15:11:23;5.40;99.90
48206;DHT22;33995;48.202;16.260;2022-11-20T15:13:53;5.40;99.90
48206;DHT22;33995;48.202;16.260;2022-11-20T15:16:22;5.30;99.90
48206;DHT22;33995;48.202;16.260;2022-11-20T15:18:52;5.10;99.90
48206;DHT22;33995;48.202;16.260;2022-11-20T15:21:20;5.10;99.90
48206;DHT22;33995;48.202;16.260;2022-11-20T15:23:49;5.00;99.90
48206;DHT22;33995;48.202;16.260;2022-11-20T15:26:25;4.90;99.90
48206;DHT22;33995;48.202;16.260;2022-11-20T15:28:54;4.90;99.90
48206;DHT22;33995;48.202;16.260;2022-11-20T15:31:23;4.80;99.90
48206;DHT22;33995;48.202;16.260;2022-11-20T15:33:51;4.70;99.90
48206;DHT22;33995;48.202;16.260;2022-11-20T15:36:21;4.60;99.90
48206;DHT22;33995;48.202;16.260;2022-11-20T15:38:49;4.50;99.90
48206;DHT22;33995;48.202;16.260;2022-11-20T15:41:17;4.50;99.90
48206;DHT22;33995;48.202;16.260;2022-11-20T15:43:47;4.40;99.90
48206;DHT22;33995;48.202;16.260;2022-11-20T15:46:24;4.30;99.90
48206;DHT22;33995;48.202;16.260;2022-11-20T15:48:56;4.30;99.90
48206;DHT22;33995;48.202;16.260;2022-11-20T15:51:29;4.20;99.90
48206;DHT22;33995;48.202;16.260;2022-11-20T15:53:58;4.10;99.90
48206;DHT22;33995;48.202;16.260;2022-11-20T15:56:26;4.00;99.90
48206;DHT22;33995;48.202;16.260;2022-11-20T15:58:55;4.00;99.90
48206;DHT22;33995;48.202;16.260;2022-11-20T16:01:23;4.00;99.90
48206;DHT22;33995;48.202;16.260;2022-11-20T16:03:51;3.80;99.90
48206;DHT22;33995;48.202;16.260;2022-11-20T16:06:19;3.80;99.90
48206;DHT22;33995;48.202;16.260;2022-11-20T16:08:47;3.80;99.90
48206;DHT22;33995;48.202;16.260;2022-11-20T16:11:17;3.70;99.90
48206;DHT22;33995;48.202;16.260;2022-11-20T16:13:47;3.60;99.90
48206;DHT22;33995;48.202;16.260;2022-11-20T16:16:36;3.50;99.90
48206;DHT22;33995;48.202;16.260;2022-11-20T16:19:05;3.40;99.90
48206;DHT22;33995;48.202;16.260;2022-11-20T16:21:36;3.40;99.90
48206;DHT22;33995;48.202;16.260;2022-11-20T16:24:11;3.30;99.90
48206;DHT22;33995;48.202;16.260;2022-11-20T16:26:42;3.20;99.90
48206;DHT22;33995;48.202;16.260;2022-11-20T16:29:12;3.10;99.90
48206;DHT22;33995;48.202;16.260;2022-11-20T16:31:47;3.10;99.90
48206;DHT22;33995;48.202;16.260;2022-11-20T16:34:16;3.20;99.90
48206;DHT22;33995;48.202;16.260;2022-11-20T16:36:45;3.00;99.90
48206;DHT22;33995;48.202;16.260;2022-11-20T16:39:13;3.00;99.90
48206;DHT22;33995;48.202;16.260;2022-11-20T16:41:50;2.90;99.90
48206;DHT22;33995;48.202;16.260;2022-11-20T16:44:18;2.90;99.90
48206;DHT22;33995;48.202;16.260;2022-11-20T16:46:50;3.00;99.90
48206;DHT22;33995;48.202;16.260;2022-11-20T16:49:21;3.00;99.90
48206;DHT22;33995;48.202;16.260;2022-11-20T16:51:52;3.00;99.90
48206;DHT22;33995;48.202;16.260;2022-11-20T16:54:20;3.10;99.90
48206;DHT22;33995;48.202;16.260;2022-11-20T16:56:51;3.10;99.90
48206;DHT22;33995;48.202;16.260;2022-11-20T16:59:22;3.00;99.90
48206;DHT22;33995;48.202;16.260;2022-11-20T17:01:51;3.00;99.90
48206;DHT22;33995;48.202;16.260;2022-11-20T17:04:20;2.90;99.90
48206;DHT22;33995;48.202;16.260;2022-11-20T17:06:51;2.90;99.90
48206;DHT22;33995;48.202;16.260;2022-11-20T17:09:18;2.90;99.90
48206;DHT22;33995;48.202;16.260;2022-11-20T17:11:48;2.90;99.90
48206;DHT22;33995;48.202;16.260;2022-11-20T17:14:21;2.80;99.90
48206;DHT22;33995;48.202;16.260;2022-11-20T17:16:50;2.70;99.90
48206;DHT22;33995;48.202;16.260;2022-11-20T17:19:20;2.80;99.90
48206;DHT22;33995;48.202;16.260;2022-11-20T17:21:50;2.90;99.90
48206;DHT22;33995;48.202;16.260;2022-11-20T17:24:18;2.90;99.90